createdAt,value
2023-09-18T00:01:56.982Z,13.11
2023-09-18T00:12:23.787Z,12.90
2023-09-18T00:23:38.155Z,12.59
2023-09-18T00:34:32.389Z,12.51
2023-09-18T00:45:12.060Z,12.51
2023-09-18T00:56:11.614Z,12.41
2023-09-18T01:06:35.633Z,12.25
2023-09-18T01:16:51.696Z,12.20
2023-09-18T01:26:54.908Z,12.13
2023-09-18T01:37:22.851Z,12.08
2023-09-18T01:47:26.329Z,11.98
2023-09-18T01:57:30.525Z,11.82
2023-09-18T02:07:33.726Z,11.68
2023-09-18T02:17:37.124Z,11.68
2023-09-18T02:27:40.233Z,11.74
2023-09-18T02:37:43.477Z,11.70
2023-09-18T02:47:46.793Z,11.67
2023-09-18T02:57:50.116Z,11.48
2023-09-18T03:07:53.421Z,11.22
2023-09-18T03:17:58.092Z,11.33
2023-09-18T03:28:02.285Z,11.38
2023-09-18T03:38:07.189Z,11.47
2023-09-18T03:48:11.643Z,11.62
2023-09-18T03:58:15.051Z,11.82
2023-09-18T04:08:19.277Z,11.74
2023-09-18T04:18:22.713Z,11.64
2023-09-18T04:28:25.921Z,11.45
2023-09-18T04:38:29.357Z,11.22
2023-09-18T04:48:33.866Z,11.26
2023-09-18T04:58:39.541Z,11.57
2023-09-18T05:08:44.685Z,11.92
2023-09-18T05:18:47.924Z,12.26
2023-09-18T05:28:52.282Z,12.30
2023-09-18T05:39:21.126Z,12.45
2023-09-18T05:49:25.001Z,12.74
2023-09-18T05:59:28.259Z,13.23
2023-09-18T06:09:31.718Z,13.67
2023-09-18T06:19:35.305Z,14.10
2023-09-18T06:29:43.449Z,14.98
2023-09-18T06:39:46.709Z,16.48
2023-09-18T06:49:50.062Z,17.65
2023-09-18T06:59:53.228Z,18.47
2023-09-18T07:20:10.685Z,19.88
2023-09-18T07:30:20.685Z,20.68
2023-09-18T07:40:24.222Z,21.21
2023-09-18T07:50:28.339Z,21.37
2023-09-18T08:00:34.409Z,21.42
2023-09-18T08:10:42.147Z,21.48
2023-09-18T08:20:45.515Z,21.53
2023-09-18T08:30:48.672Z,21.71
2023-09-18T08:40:53.030Z,22.04
2023-09-18T08:50:57.451Z,22.48
2023-09-18T09:01:01.609Z,22.99
2023-09-18T09:11:05.414Z,23.46
2023-09-18T09:21:09.194Z,23.77
2023-09-18T09:31:12.690Z,24.08
2023-09-18T09:41:17.270Z,24.32
2023-09-18T09:51:22.464Z,24.50
2023-09-18T10:01:28.865Z,24.79
2023-09-18T10:11:36.228Z,25.11
2023-09-18T10:21:59.603Z,25.33
2023-09-18T10:32:09.023Z,25.46
2023-09-18T10:42:13.554Z,25.62
2023-09-18T10:52:16.884Z,25.70
2023-09-18T11:02:20.859Z,25.82
2023-09-18T11:12:44.195Z,25.87
2023-09-18T11:23:16.804Z,25.84
2023-09-18T11:33:41.296Z,25.87
2023-09-18T11:43:44.787Z,25.90
2023-09-18T11:53:49.419Z,26.00
2023-09-18T12:03:56.423Z,26.18
2023-09-18T12:13:59.740Z,26.31
2023-09-18T12:24:03.106Z,26.44
2023-09-18T12:34:08.732Z,26.50
2023-09-18T12:44:12.726Z,26.44
2023-09-18T12:54:17.501Z,26.38
2023-09-18T13:04:22.071Z,26.43
2023-09-18T13:14:26.425Z,26.51
2023-09-18T13:24:31.543Z,26.49
2023-09-18T13:34:34.829Z,26.22
2023-09-18T13:44:38.221Z,26.12
2023-09-18T13:54:42.415Z,25.97
2023-09-18T14:04:46.167Z,25.84
2023-09-18T14:14:49.539Z,25.69
2023-09-18T14:24:52.853Z,25.57
2023-09-18T14:34:56.322Z,25.40
2023-09-18T14:44:59.645Z,25.33
2023-09-18T14:55:06.774Z,25.24
2023-09-18T15:05:13.765Z,25.03
2023-09-18T15:15:17.307Z,24.70
2023-09-18T15:25:22.095Z,24.26
2023-09-18T15:35:26.858Z,23.82
2023-09-18T15:45:30.148Z,23.37
2023-09-18T15:55:33.503Z,23.00
2023-09-18T16:05:36.604Z,22.64
2023-09-18T16:15:39.888Z,22.17
2023-09-18T16:25:43.392Z,21.64
2023-09-18T16:35:48.661Z,21.15
2023-09-18T16:45:51.944Z,20.77
2023-09-18T16:56:20.671Z,20.28
2023-09-18T17:06:24.476Z,19.79
2023-09-18T17:16:28.309Z,19.20
2023-09-18T17:26:31.553Z,18.84
2023-09-18T17:36:41.123Z,18.41
2023-09-18T17:46:46.816Z,18.06
2023-09-18T17:56:49.937Z,17.78
2023-09-18T18:06:53.017Z,17.48
2023-09-18T18:16:57.919Z,17.28
2023-09-18T18:27:01.069Z,17.04
2023-09-18T18:37:04.293Z,16.87
2023-09-18T18:47:08.199Z,16.71
2023-09-18T18:57:11.385Z,16.47
2023-09-18T19:07:14.575Z,16.27
2023-09-18T19:17:17.908Z,16.03
2023-09-18T19:27:21.746Z,15.78
2023-09-18T19:37:24.903Z,15.57
2023-09-18T19:47:29.032Z,15.50
2023-09-18T19:57:32.240Z,15.40
2023-09-18T20:07:35.701Z,15.23
2023-09-18T20:17:40.167Z,15.15
2023-09-18T20:27:43.622Z,15.15
2023-09-18T20:37:46.787Z,15.00
2023-09-18T20:47:50.103Z,15.01
2023-09-18T20:57:53.355Z,14.85
2023-09-18T21:07:56.463Z,14.65
2023-09-18T21:17:59.759Z,14.47
2023-09-18T21:28:06.396Z,14.44
2023-09-18T21:38:09.414Z,14.40
2023-09-18T21:48:12.613Z,14.49
2023-09-18T21:58:16.116Z,14.56
2023-09-18T22:08:19.558Z,14.73
2023-09-18T22:18:22.723Z,14.79
2023-09-18T22:28:25.919Z,14.81
2023-09-18T22:39:10.073Z,14.75
2023-09-18T22:49:51.008Z,14.75
2023-09-18T22:59:56.230Z,14.61
2023-09-18T23:09:59.868Z,14.69
2023-09-18T23:20:09.228Z,14.78
2023-09-18T23:30:18.707Z,14.98
2023-09-18T23:40:22.850Z,15.32
2023-09-18T23:50:51.704Z,15.55
